Time;durP1;ratioP1;P1;durP2;ratioP2;P2;SDS_P1;SDS_P2;PMS_P1;PMS_P2;Temp;Humidity;BMP_temperature;BMP_pressure;BME280_temperature;BME280_humidity;BME280_pressure;Samples;Min_cycle;Max_cycle;Signal;HPM_P1;HPM_P2
2022/06/09 00:01:40;;;;;;;21.05;7.25;;;14.60;99.90;;;;;;5096234;28;20055;-70
2022/06/09 00:04:26;;;;;;;20.10;7.60;;;14.60;99.90;;;;;;5077923;28;20052;-70
2022/06/09 00:06:58;;;;;;;20.50;7.22;;;14.60;99.90;;;;;;5095729;28;20052;-69
2022/06/09 00:09:29;;;;;;;18.08;8.30;;;14.60;99.90;;;;;;5095751;28;20044;-71
2022/06/09 00:11:56;;;;;;;15.30;7.55;;;14.60;99.90;;;;;;5078162;28;20052;-71
2022/06/09 00:14:23;;;;;;;18.30;7.85;;;14.60;99.90;;;;;;5095923;28;20135;-71
2022/06/09 00:16:50;;;;;;;21.17;9.00;;;14.60;99.90;;;;;;5077946;28;20055;-71
2022/06/09 00:19:16;;;;;;;15.43;8.00;;;14.60;99.90;;;;;;5095661;28;20412;-69
2022/06/09 00:21:42;;;;;;;23.35;8.82;;;14.60;99.90;;;;;;5077554;28;20055;-72
2022/06/09 00:24:08;;;;;;;21.55;8.30;;;14.60;99.90;;;;;;5077710;28;20630;-71
2022/06/09 00:26:34;;;;;;;;;;;14.60;99.90;;;;;;5095834;28;20485;-70
2022/06/09 00:29:01;;;;;;;21.58;8.15;;;14.50;99.90;;;;;;5095552;28;19927;-74
2022/06/09 00:31:27;;;;;;;17.83;7.95;;;14.50;99.90;;;;;;5095547;28;20052;-70
2022/06/09 00:33:53;;;;;;;18.90;8.73;;;14.50;99.90;;;;;;5095393;28;20052;-72
2022/06/09 00:36:20;;;;;;;22.52;9.43;;;14.50;99.90;;;;;;5060919;28;20044;-76
2022/06/09 00:38:46;;;;;;;;;;;14.50;99.90;;;;;;5095715;28;20508;-72
2022/06/09 00:41:12;;;;;;;31.15;9.02;;;14.40;99.90;;;;;;5095185;28;19927;-73
2022/06/09 00:43:42;;;;;;;22.33;9.88;;;14.50;99.90;;;;;;5077345;28;20060;-70
2022/06/09 00:46:19;;;;;;;26.15;9.27;;;14.50;99.90;;;;;;5076782;28;20427;-70
2022/06/09 00:48:51;;;;;;;19.25;9.05;;;14.50;99.90;;;;;;5095077;28;20135;-71
2022/06/09 00:51:35;;;;;;;25.38;10.38;;;14.50;99.90;;;;;;5095079;28;20054;-73
2022/06/09 00:54:11;;;;;;;26.45;10.15;;;14.50;99.90;;;;;;5095166;28;20048;-74
2022/06/09 00:56:45;;;;;;;32.72;10.00;;;14.50;99.90;;;;;;5077250;28;20055;-70
2022/06/09 00:59:15;;;;;;;26.52;9.27;;;14.50;99.90;;;;;;5094965;28;20047;-71
2022/06/09 01:01:42;;;;;;;22.10;9.02;;;14.50;99.90;;;;;;5076783;28;20056;-73
2022/06/09 01:04:12;;;;;;;24.23;8.98;;;14.50;99.90;;;;;;5076640;28;20060;-71
2022/06/09 01:06:43;;;;;;;28.30;7.90;;;14.40;99.90;;;;;;5095221;28;20062;-71
2022/06/09 01:09:12;;;;;;;24.55;9.82;;;14.40;99.90;;;;;;5076522;28;20055;-71
2022/06/09 01:11:39;;;;;;;22.63;8.73;;;14.40;99.90;;;;;;5094716;28;20052;-74
2022/06/09 01:14:07;;;;;;;25.30;8.90;;;14.40;99.90;;;;;;5076751;28;20105;-70
2022/06/09 01:16:55;;;;;;;19.80;8.80;;;14.40;99.90;;;;;;5094534;28;20051;-70
2022/06/09 01:19:48;;;;;;;19.55;7.97;;;14.40;99.90;;;;;;5076126;28;20056;-74
2022/06/09 01:22:42;;;;;;;22.77;8.23;;;14.30;99.90;;;;;;5076736;28;20052;-72
2022/06/09 01:25:29;;;;;;;21.80;9.38;;;14.30;99.90;;;;;;5094243;28;20122;-74
2022/06/09 01:28:04;;;;;;;22.08;8.75;;;14.30;99.90;;;;;;5072657;28;20059;-73
2022/06/09 01:30:53;;;;;;;19.80;8.35;;;14.30;99.90;;;;;;5072948;28;20492;-70
2022/06/09 01:33:55;;;;;;;17.60;7.95;;;14.20;99.90;;;;;;5072894;28;20090;-70
2022/06/09 01:36:41;;;;;;;19.00;8.15;;;14.30;99.90;;;;;;5012125;28;20128;-70
2022/06/09 01:39:08;;;;;;;19.70;7.88;;;14.20;99.90;;;;;;4995593;28;20065;-71
2022/06/09 01:41:35;;;;;;;24.08;8.88;;;14.20;99.90;;;;;;5012128;28;20081;-70
2022/06/09 01:44:03;;;;;;;18.83;7.57;;;14.20;99.90;;;;;;5012016;28;20116;-70
2022/06/09 01:46:32;;;;;;;19.33;8.68;;;14.20;99.90;;;;;;4995557;28;20414;-70
2022/06/09 01:49:10;;;;;;;17.73;8.30;;;14.20;99.90;;;;;;5011808;28;20053;-71
2022/06/09 01:51:41;;;;;;;22.60;7.68;;;14.20;99.90;;;;;;4996012;28;20511;-74
2022/06/09 01:54:15;;;;;;;18.50;7.53;;;14.20;99.90;;;;;;5011825;28;20050;-70
2022/06/09 01:57:09;;;;;;;19.38;8.93;;;14.20;99.90;;;;;;5011648;28;20053;-71
2022/06/09 01:59:52;;;;;;;16.45;7.40;;;14.10;99.90;;;;;;5011552;28;20515;-70
2022/06/09 02:02:34;;;;;;;22.50;8.23;;;14.10;99.90;;;;;;5011738;28;20543;-70
2022/06/09 02:05:10;;;;;;;26.70;8.52;;;14.10;99.90;;;;;;5011578;28;20065;-70
2022/06/09 02:07:39;;;;;;;22.15;7.78;;;14.10;99.90;;;;;;4995376;28;20096;-72
2022/06/09 02:10:22;;;;;;;21.80;8.73;;;14.10;99.90;;;;;;4995300;28;20056;-71
2022/06/09 02:12:50;;;;;;;20.90;8.35;;;14.10;99.90;;;;;;5064766;28;20074;-70
2022/06/09 02:15:28;;;;;;;27.05;9.25;;;14.10;99.90;;;;;;5072188;28;20048;-70
2022/06/09 02:17:54;;;;;;;22.23;8.25;;;14.10;99.90;;;;;;5073443;28;20071;-70
2022/06/09 02:20:23;;;;;;;29.90;8.48;;;14.10;99.90;;;;;;5073352;28;20513;-70
2022/06/09 02:22:50;;;;;;;20.50;9.60;;;14.00;99.90;;;;;;5073329;28;20060;-70
2022/06/09 02:25:17;;;;;;;17.63;9.02;;;14.00;99.90;;;;;;5073302;28;20060;-70
2022/06/09 02:27:42;;;;;;;21.50;8.90;;;14.00;99.90;;;;;;5085563;28;20074;-70
2022/06/09 02:30:09;;;;;;;21.65;9.07;;;14.00;99.90;;;;;;5093089;28;20493;-73
2022/06/09 02:32:35;;;;;;;23.63;9.77;;;14.10;99.90;;;;;;5093488;28;20048;-73
2022/06/09 02:35:02;;;;;;;22.00;9.82;;;14.00;99.90;;;;;;5093470;28;20044;-75
2022/06/09 02:37:28;;;;;;;22.88;10.48;;;14.10;99.90;;;;;;5074911;28;20075;-70
2022/06/09 02:39:54;;;;;;;;;;;14.00;99.90;;;;;;5093816;28;20051;-71
2022/06/09 02:42:19;;;;;;;23.90;9.55;;;14.00;99.90;;;;;;5093212;28;19973;-70
2022/06/09 02:44:45;;;;;;;27.73;9.77;;;14.00;99.90;;;;;;5075202;28;20056;-70
2022/06/09 02:47:11;;;;;;;23.95;10.82;;;14.00;99.90;;;;;;5075425;28;20048;-71
2022/06/09 02:49:38;;;;;;;32.88;10.35;;;14.00;99.90;;;;;;5093206;28;20439;-71
2022/06/09 02:52:05;;;;;;;21.10;9.95;;;14.00;99.90;;;;;;5093188;28;20056;-70
2022/06/09 02:54:30;;;;;;;;;;;14.00;99.90;;;;;;5093662;28;20091;-70
2022/06/09 02:56:56;;;;;;;23.17;10.07;;;14.00;99.90;;;;;;5075421;28;19971;-70
2022/06/09 02:59:22;;;;;;;21.08;10.02;;;14.00;99.90;;;;;;5093121;28;20381;-74
2022/06/09 03:01:47;;;;;;;23.98;10.18;;;14.00;99.90;;;;;;5093344;28;20496;-70
2022/06/09 03:04:13;;;;;;;18.13;9.77;;;14.00;99.90;;;;;;5093112;28;20048;-72
2022/06/09 03:06:39;;;;;;;25.30;10.10;;;14.10;99.90;;;;;;5075352;28;20057;-70
2022/06/09 03:09:04;;;;;;;19.88;10.10;;;14.00;99.90;;;;;;5092780;28;20048;-70
2022/06/09 03:11:30;;;;;;;33.50;10.88;;;13.90;99.90;;;;;;5093057;28;20044;-71
2022/06/09 03:13:56;;;;;;;23.58;10.20;;;13.90;99.90;;;;;;5075176;28;20107;-70
2022/06/09 03:16:21;;;;;;;27.75;10.13;;;13.90;99.90;;;;;;5074752;28;20056;-72
2022/06/09 03:18:47;;;;;;;25.90;10.07;;;13.90;99.90;;;;;;5075039;28;20139;-72
2022/06/09 03:21:14;;;;;;;26.00;11.70;;;13.90;99.90;;;;;;5075071;28;20370;-70
2022/06/09 03:23:40;;;;;;;23.15;11.50;;;13.90;99.90;;;;;;5058446;28;20079;-71
2022/06/09 03:26:07;;;;;;;20.60;11.13;;;13.90;99.90;;;;;;5092915;28;20052;-74
2022/06/09 03:28:33;;;;;;;29.60;11.57;;;13.90;99.90;;;;;;5071214;28;20121;-70
2022/06/09 03:30:59;;;;;;;;;;;13.90;99.90;;;;;;5073183;28;20061;-75
2022/06/09 03:33:25;;;;;;;27.70;11.23;;;13.90;99.90;;;;;;5072376;28;20391;-71
2022/06/09 03:35:51;;;;;;;25.80;10.48;;;13.90;99.90;;;;;;5071754;28;20052;-70
2022/06/09 03:38:17;;;;;;;21.50;10.38;;;13.90;99.90;;;;;;5072631;28;20084;-73
2022/06/09 03:40:43;;;;;;;30.23;10.90;;;13.90;99.90;;;;;;5071516;28;20056;-74
2022/06/09 03:43:08;;;;;;;25.92;12.18;;;13.90;99.90;;;;;;5074907;28;20451;-72
2022/06/09 03:45:34;;;;;;;22.08;10.60;;;13.90;99.90;;;;;;5076116;28;20053;-71
2022/06/09 03:48:01;;;;;;;20.08;10.77;;;14.30;99.90;;;;;;5075780;28;20098;-74
2022/06/09 03:50:29;;;;;;;23.60;10.30;;;13.90;99.90;;;;;;5075924;28;20524;-70
2022/06/09 03:52:55;;;;;;;21.90;10.63;;;13.90;99.90;;;;;;5074862;28;20060;-70
2022/06/09 03:55:22;;;;;;;24.23;11.18;;;13.80;99.90;;;;;;5074980;28;20059;-73
2022/06/09 03:57:48;;;;;;;26.42;10.80;;;13.90;99.90;;;;;;5074923;28;20056;-69
2022/06/09 04:00:17;;;;;;;25.50;11.48;;;13.90;99.90;;;;;;5075695;28;20059;-70
2022/06/09 04:02:43;;;;;;;22.25;10.60;;;13.90;99.90;;;;;;5075690;28;20057;-74
2022/06/09 04:05:09;;;;;;;28.48;12.50;;;13.90;99.90;;;;;;5075796;28;20044;-73
2022/06/09 04:07:34;;;;;;;27.58;12.45;;;13.90;99.90;;;;;;5074619;28;20061;-73
2022/06/09 04:10:00;;;;;;;22.85;11.27;;;13.90;99.90;;;;;;5075482;28;20064;-70
2022/06/09 04:12:26;;;;;;;20.95;11.05;;;13.80;99.90;;;;;;5075741;28;20057;-71
2022/06/09 04:14:52;;;;;;;23.98;10.90;;;13.80;99.90;;;;;;5074620;28;20067;-75
2022/06/09 04:17:18;;;;;;;24.25;11.57;;;13.80;99.90;;;;;;5075336;28;20052;-71
2022/06/09 04:19:44;;;;;;;21.98;10.63;;;13.90;99.90;;;;;;5074465;28;20121;-70
2022/06/09 04:22:10;;;;;;;25.58;10.63;;;13.80;99.90;;;;;;5073986;28;20060;-73
2022/06/09 04:24:36;;;;;;;22.63;11.23;;;13.80;99.90;;;;;;5075538;28;20055;-73
2022/06/09 04:27:03;;;;;;;25.13;11.18;;;13.80;99.90;;;;;;5081782;28;20048;-70
2022/06/09 04:29:28;;;;;;;21.98;10.85;;;13.80;99.90;;;;;;5077369;28;20056;-71
2022/06/09 04:31:54;;;;;;;25.98;11.43;;;13.90;99.90;;;;;;5095263;28;20052;-70
2022/06/09 04:34:20;;;;;;;26.05;11.23;;;13.90;99.90;;;;;;5095610;28;20043;-71
2022/06/09 04:36:46;;;;;;;25.67;12.05;;;14.20;99.90;;;;;;5077774;28;20143;-73
2022/06/09 04:39:12;;;;;;;24.70;11.45;;;13.90;99.90;;;;;;5095426;28;20052;-70
2022/06/09 04:41:38;;;;;;;;;;;13.90;99.90;;;;;;5077731;28;20424;-73
2022/06/09 04:44:04;;;;;;;27.20;11.30;;;13.90;99.90;;;;;;5077162;28;19920;-70
2022/06/09 04:46:30;;;;;;;25.13;12.48;;;13.90;99.90;;;;;;5095151;28;20063;-75
2022/06/09 04:48:56;;;;;;;23.08;11.63;;;13.90;99.90;;;;;;5060271;28;20504;-72
2022/06/09 04:51:23;;;;;;;22.02;12.27;;;13.90;99.90;;;;;;5095263;28;20153;-70
2022/06/09 04:53:49;;;;;;;26.98;12.32;;;13.90;99.90;;;;;;5094047;28;20052;-70
2022/06/09 04:56:17;;;;;;;31.77;11.80;;;13.90;99.90;;;;;;5073829;28;20135;-75
2022/06/09 04:58:43;;;;;;;22.77;12.57;;;13.90;99.90;;;;;;5072799;28;20060;-70
2022/06/09 05:01:24;;;;;;;28.95;12.85;;;14.00;99.90;;;;;;5076966;28;20117;-74
2022/06/09 05:03:51;;;;;;;34.63;13.43;;;13.90;99.90;;;;;;5076523;28;20052;-71
2022/06/09 05:06:19;;;;;;;24.80;12.60;;;14.20;99.90;;;;;;5094925;28;20492;-71
2022/06/09 05:08:45;;;;;;;33.20;14.90;;;14.00;99.90;;;;;;5094699;28;20489;-71
2022/06/09 05:11:11;;;;;;;27.60;13.95;;;14.00;99.90;;;;;;5076871;28;20071;-70
2022/06/09 05:13:37;;;;;;;31.33;14.00;;;14.00;99.90;;;;;;5076830;28;20085;-72
2022/06/09 05:16:04;;;;;;;29.98;13.52;;;14.00;99.90;;;;;;5094559;28;20048;-72
2022/06/09 05:18:31;;;;;;;38.13;16.23;;;14.00;99.90;;;;;;5094662;28;20055;-69
2022/06/09 05:20:58;;;;;;;27.85;14.75;;;14.00;99.90;;;;;;5094613;28;20051;-72
2022/06/09 05:23:24;;;;;;;30.02;14.65;;;14.00;99.90;;;;;;5076783;28;20067;-70
2022/06/09 05:25:53;;;;;;;35.83;15.88;;;14.20;99.90;;;;;;5075395;28;20535;-70
2022/06/09 05:28:20;;;;;;;39.00;16.63;;;14.00;99.90;;;;;;5072549;28;20462;-70
2022/06/09 05:30:46;;;;;;;32.20;15.88;;;14.00;99.90;;;;;;5074111;28;20396;-70
2022/06/09 05:33:12;;;;;;;33.03;16.48;;;14.00;99.90;;;;;;5072914;28;20059;-75
2022/06/09 05:35:39;;;;;;;;;;;14.00;99.90;;;;;;5073381;28;20063;-70
2022/06/09 05:46:19;;;;;;;24.10;14.05;;;14.10;99.90;;;;;;5073910;28;20422;-70
2022/06/09 05:48:46;;;;;;;25.48;13.90;;;14.10;99.90;;;;;;5072603;28;20056;-70
2022/06/09 05:51:14;;;;;;;24.08;12.02;;;14.10;99.90;;;;;;5073707;28;20049;-70
2022/06/09 05:53:40;;;;;;;19.42;11.85;;;14.10;99.90;;;;;;5072494;28;20059;-70
2022/06/09 05:56:07;;;;;;;23.08;12.30;;;14.10;99.90;;;;;;5073459;28;20182;-76
2022/06/09 05:58:35;;;;;;;25.88;13.27;;;14.10;99.90;;;;;;5073674;28;20053;-70
2022/06/09 06:01:04;;;;;;;24.63;12.60;;;14.10;99.90;;;;;;5073659;28;20470;-73
2022/06/09 06:03:29;;;;;;;20.30;11.70;;;14.10;99.90;;;;;;5073538;28;20052;-71
2022/06/09 06:08:40;;;;;;;25.98;13.32;;;14.20;99.90;;;;;;5073227;28;20075;-70
2022/06/09 06:11:06;;;;;;;21.85;13.57;;;14.20;99.90;;;;;;5072355;28;20063;-70
2022/06/09 06:13:32;;;;;;;25.70;14.60;;;14.20;99.90;;;;;;5072303;28;20168;-70
2022/06/09 06:15:58;;;;;;;24.35;13.63;;;14.20;99.90;;;;;;5073384;28;20513;-72
2022/06/09 06:18:24;;;;;;;28.13;14.05;;;14.20;99.90;;;;;;5073290;28;20049;-75
2022/06/09 06:20:51;;;;;;;26.85;13.70;;;14.20;99.90;;;;;;5072223;28;20048;-75
2022/06/09 06:23:16;;;;;;;;;;;14.20;99.90;;;;;;5073531;28;20412;-70
2022/06/09 06:25:42;;;;;;;22.73;13.45;;;14.20;99.90;;;;;;5072174;28;19925;-72
2022/06/09 06:28:08;;;;;;;29.50;13.38;;;14.30;99.90;;;;;;5089019;28;20074;-70
2022/06/09 06:30:34;;;;;;;21.08;12.35;;;14.30;99.90;;;;;;5093301;28;20101;-71
2022/06/09 06:32:59;;;;;;;22.48;12.32;;;14.30;99.90;;;;;;5093216;28;20062;-76
2022/06/09 06:35:25;;;;;;;22.88;12.20;;;14.30;99.90;;;;;;5093231;28;20048;-71
2022/06/09 06:37:50;;;;;;;21.27;12.57;;;14.40;99.90;;;;;;5093111;28;20385;-71
2022/06/09 06:40:16;;;;;;;27.80;13.18;;;14.40;99.90;;;;;;5093224;28;20047;-70
2022/06/09 06:42:42;;;;;;;22.15;12.23;;;14.40;99.90;;;;;;5093420;28;20052;-75
2022/06/09 06:45:12;;;;;;;25.02;12.55;;;14.40;99.90;;;;;;5093228;28;20063;-70
2022/06/09 06:47:39;;;;;;;26.98;13.30;;;14.40;99.90;;;;;;5093612;28;20108;-74
2022/06/09 06:50:06;;;;;;;23.23;12.23;;;14.50;99.90;;;;;;5093139;28;20052;-75
2022/06/09 06:52:31;;;;;;;20.88;12.57;;;14.50;99.90;;;;;;5075036;28;20558;-70
2022/06/09 06:54:57;;;;;;;27.35;11.90;;;14.50;99.90;;;;;;5092954;28;20098;-71
2022/06/09 06:57:23;;;;;;;21.33;11.52;;;14.50;99.90;;;;;;5093271;28;20063;-73
2022/06/09 06:59:49;;;;;;;22.33;12.90;;;14.50;99.90;;;;;;5075345;28;20060;-73
2022/06/09 07:02:14;;;;;;;21.52;12.43;;;14.50;99.90;;;;;;5093112;28;20064;-73
2022/06/09 07:04:40;;;;;;;20.88;12.35;;;14.50;99.90;;;;;;5092923;28;20056;-70
2022/06/09 07:07:05;;;;;;;23.05;14.00;;;14.50;99.90;;;;;;5092984;28;20054;-70
2022/06/09 07:09:31;;;;;;;18.95;12.77;;;14.50;99.90;;;;;;5092649;28;20044;-72
2022/06/09 07:11:57;;;;;;;25.98;14.23;;;14.50;99.90;;;;;;5075423;28;20153;-71
2022/06/09 07:14:22;;;;;;;26.17;15.48;;;14.50;99.90;;;;;;5074833;28;20094;-70
2022/06/09 07:16:49;;;;;;;27.23;13.23;;;14.50;99.90;;;;;;5093442;28;20062;-71
2022/06/09 07:19:16;;;;;;;21.50;13.02;;;14.60;99.90;;;;;;5096880;28;20043;-75
2022/06/09 07:21:42;;;;;;;22.00;13.10;;;14.60;99.90;;;;;;5078884;28;20063;-71
2022/06/09 07:24:07;;;;;;;26.60;13.40;;;14.60;99.90;;;;;;5078559;28;20109;-75
2022/06/09 07:26:33;;;;;;;24.13;13.35;;;14.70;99.90;;;;;;5096449;28;20455;-69
2022/06/09 07:28:59;;;;;;;22.42;14.52;;;14.80;99.90;;;;;;5096827;28;20565;-70
2022/06/09 07:31:25;;;;;;;23.77;13.77;;;14.80;99.90;;;;;;5078669;28;20052;-73
2022/06/09 07:33:51;;;;;;;22.42;13.63;;;14.90;99.90;;;;;;5078806;28;20139;-70
2022/06/09 07:36:21;;;;;;;26.23;13.88;;;14.90;99.90;;;;;;5078700;28;20083;-70
2022/06/09 07:38:46;;;;;;;25.58;14.80;;;14.90;99.90;;;;;;5078659;28;20052;-70
2022/06/09 07:41:12;;;;;;;24.23;12.75;;;15.00;99.90;;;;;;5096373;28;20565;-75
2022/06/09 07:43:38;;;;;;;22.17;13.07;;;15.10;99.90;;;;;;5096435;28;20048;-70
2022/06/09 07:46:04;;;;;;;23.70;13.85;;;15.10;99.90;;;;;;5096398;28;20059;-73
2022/06/09 07:48:30;;;;;;;21.50;12.35;;;15.10;99.90;;;;;;5096183;28;20048;-70
2022/06/09 07:50:56;;;;;;;24.88;13.57;;;15.30;99.90;;;;;;5077938;28;20052;-73
2022/06/09 07:53:23;;;;;;;;;;;15.20;99.90;;;;;;5096583;28;20093;-70
2022/06/09 07:55:49;;;;;;;21.75;13.57;;;15.20;99.90;;;;;;5096117;28;19971;-70
2022/06/09 07:58:17;;;;;;;19.48;11.23;;;15.30;99.90;;;;;;5077863;28;20059;-70
2022/06/09 08:00:43;;;;;;;18.90;11.85;;;15.40;99.90;;;;;;5096093;28;20052;-71
2022/06/09 08:03:14;;;;;;;20.65;12.02;;;15.40;99.90;;;;;;5096054;28;20048;-71
2022/06/09 08:05:40;;;;;;;19.15;12.52;;;15.30;99.90;;;;;;5078152;28;20060;-72
2022/06/09 08:08:06;;;;;;;16.05;9.35;;;15.40;99.90;;;;;;5095933;28;20101;-73
2022/06/09 08:10:32;;;;;;;;;;;15.40;99.90;;;;;;5078127;28;20056;-70
2022/06/09 08:13:00;;;;;;;23.17;12.35;;;15.40;99.90;;;;;;5095851;28;19928;-74
2022/06/09 08:15:28;;;;;;;16.48;10.93;;;15.60;99.90;;;;;;5096005;28;20052;-69
2022/06/09 08:17:56;;;;;;;15.98;10.48;;;15.60;99.90;;;;;;5077301;28;20462;-70
2022/06/09 08:20:23;;;;;;;16.00;10.02;;;15.70;99.90;;;;;;5095428;28;20412;-72
2022/06/09 08:22:49;;;;;;;16.73;9.32;;;15.70;99.90;;;;;;5095392;28;20572;-71
2022/06/09 08:25:17;;;;;;;13.82;8.98;;;15.80;99.90;;;;;;5095301;28;20087;-72
2022/06/09 08:27:48;;;;;;;14.85;9.13;;;15.80;99.90;;;;;;5092862;28;20572;-72
2022/06/09 08:30:19;;;;;;;13.75;8.02;;;15.90;99.90;;;;;;5095261;28;20112;-70
2022/06/09 08:32:45;;;;;;;11.25;7.38;;;15.90;99.90;;;;;;5095347;28;20052;-74
2022/06/09 08:35:16;;;;;;;13.80;6.90;;;16.00;99.90;;;;;;5095101;28;20408;-70
2022/06/09 08:37:48;;;;;;;10.68;6.93;;;16.10;99.90;;;;;;5095077;28;20059;-71
2022/06/09 08:40:48;;;;;;;11.27;8.35;;;16.20;99.90;;;;;;5095297;28;20063;-72
2022/06/09 08:43:30;;;;;;;14.02;8.35;;;16.30;99.90;;;;;;5075706;28;20409;-70
2022/06/09 08:45:59;;;;;;;9.98;5.35;;;16.30;99.90;;;;;;5094851;28;20424;-73
2022/06/09 08:48:34;;;;;;;9.07;5.47;;;16.30;99.90;;;;;;5077047;28;20527;-72
2022/06/09 08:51:16;;;;;;;10.30;5.07;;;16.40;99.90;;;;;;5094892;28;20519;-75
2022/06/09 08:53:50;;;;;;;11.40;7.00;;;16.50;99.90;;;;;;5060383;28;20123;-70
2022/06/09 08:56:21;;;;;;;8.93;5.85;;;16.60;99.90;;;;;;5094759;28;20056;-70
2022/06/09 08:59:12;;;;;;;8.60;4.75;;;16.60;99.90;;;;;;5094744;28;20056;-70
2022/06/09 09:01:45;;;;;;;5.80;3.70;;;16.60;99.90;;;;;;5094708;28;20088;-71
2022/06/09 09:04:16;;;;;;;8.35;4.80;;;16.70;99.90;;;;;;5094533;28;20131;-70
2022/06/09 09:06:49;;;;;;;7.13;3.15;;;16.70;99.90;;;;;;5094490;28;20048;-70
2022/06/09 09:09:22;;;;;;;7.20;3.63;;;16.80;99.90;;;;;;5094291;28;20496;-69
2022/06/09 09:12:04;;;;;;;5.40;2.70;;;16.80;99.90;;;;;;5075719;28;20067;-69
2022/06/09 09:14:46;;;;;;;5.97;2.75;;;16.90;99.90;;;;;;5076203;28;20048;-72
2022/06/09 09:17:50;;;;;;;7.75;2.42;;;16.90;99.90;;;;;;5094321;28;20083;-71
2022/06/09 09:20:29;;;;;;;9.85;3.05;;;17.00;99.90;;;;;;5075808;28;20156;-73
2022/06/09 09:23:16;;;;;;;5.13;2.90;;;17.00;99.90;;;;;;5076291;28;20075;-70
2022/06/09 09:25:52;;;;;;;2.95;1.52;;;17.10;99.90;;;;;;5094164;28;20082;-73
2022/06/09 09:28:30;;;;;;;4.68;1.55;;;17.20;99.90;;;;;;5094113;28;20056;-70
2022/06/09 09:31:20;;;;;;;1.88;1.10;;;17.30;99.90;;;;;;5093315;28;20493;-70
2022/06/09 09:33:48;;;;;;;3.65;1.77;;;17.50;99.90;;;;;;5094160;28;20539;-72
2022/06/09 09:36:24;;;;;;;5.05;1.77;;;17.60;99.90;;;;;;5093933;28;20089;-70
2022/06/09 09:39:19;;;;;;;1.95;0.95;;;17.60;99.90;;;;;;5094469;28;20044;-70
2022/06/09 09:41:46;;;;;;;2.75;0.82;;;17.70;99.90;;;;;;5093836;28;20436;-71
2022/06/09 09:44:21;;;;;;;2.88;1.30;;;17.80;99.90;;;;;;5075841;28;20051;-70
2022/06/09 09:46:57;;;;;;;2.63;1.15;;;17.90;99.90;;;;;;5076071;28;20051;-71
2022/06/09 09:49:29;;;;;;;2.05;1.05;;;18.00;99.90;;;;;;5094108;28;20396;-71
2022/06/09 09:51:58;;;;;;;3.28;1.02;;;18.00;99.90;;;;;;5093869;28;20193;-70
2022/06/09 09:54:30;;;;;;;1.27;0.80;;;18.10;99.90;;;;;;5075823;28;20040;-71
2022/06/09 09:57:20;;;;;;;2.30;0.88;;;18.20;99.90;;;;;;5093620;28;20055;-70
2022/06/09 09:59:47;;;;;;;3.20;0.90;;;18.20;99.90;;;;;;5011479;28;20418;-69
2022/06/09 10:14:39;;;;;;;2.65;1.00;;;18.40;99.90;;;;;;5011157;28;20115;-71
2022/06/09 10:17:20;;;;;;;1.30;0.70;;;18.40;99.90;;;;;;5011047;28;20054;-69
2022/06/09 10:19:55;;;;;;;2.67;0.95;;;18.40;99.90;;;;;;5011205;28;20415;-73
2022/06/09 10:22:25;;;;;;;1.52;0.90;;;18.40;99.90;;;;;;4994837;28;20054;-70
2022/06/09 10:24:57;;;;;;;3.88;1.20;;;18.30;99.90;;;;;;5011222;28;20062;-70
2022/06/09 10:27:33;;;;;;;1.63;0.90;;;18.30;99.90;;;;;;5003721;28;20055;-70
2022/06/09 10:30:07;;;;;;;1.38;0.80;;;18.30;99.90;;;;;;4991339;28;20054;-70
2022/06/09 10:32:49;;;;;;;2.75;0.90;;;18.30;99.90;;;;;;4975409;28;20077;-71
2022/06/09 10:35:23;;;;;;;6.55;1.40;;;18.30;99.90;;;;;;4991310;28;20054;-70
2022/06/09 10:38:12;;;;;;;5.43;1.08;;;18.30;99.90;;;;;;5068403;28;20114;-70
2022/06/09 10:40:50;;;;;;;6.50;1.20;;;18.30;99.90;;;;;;4994582;28;20062;-70
2022/06/09 10:43:35;;;;;;;3.40;1.08;;;18.40;99.90;;;;;;4994465;28;20050;-71
2022/06/09 10:46:11;;;;;;;2.45;1.00;;;18.40;99.90;;;;;;5010917;28;20053;-72
2022/06/09 10:55:14;;;;;;;3.92;1.23;;;18.20;99.90;;;;;;4998646;28;20140;-70
2022/06/09 10:58:21;;;;;;;5.70;1.83;;;18.20;99.90;;;;;;5014820;28;20058;-70
2022/06/09 11:00:50;;;;;;;1.40;0.70;;;18.10;99.90;;;;;;5010946;28;20088;-74
2022/06/09 11:03:27;;;;;;;3.25;1.00;;;18.00;99.90;;;;;;5014811;28;20069;-75
2022/06/09 11:06:02;;;;;;;2.42;0.75;;;18.00;99.90;;;;;;5014684;28;20085;-70
2022/06/09 11:09:00;;;;;;;2.88;0.90;;;18.20;99.90;;;;;;5014668;28;20053;-72
2022/06/09 11:11:43;;;;;;;2.25;0.82;;;18.30;99.90;;;;;;5014684;28;20057;-70
2022/06/09 11:14:30;;;;;;;4.50;1.00;;;18.40;99.90;;;;;;5014405;28;20527;-70
2022/06/09 11:17:17;;;;;;;3.17;1.15;;;18.40;99.90;;;;;;5024337;28;20139;-70
2022/06/09 11:19:58;;;;;;;3.38;2.00;;;18.30;99.90;;;;;;5058684;28;20060;-71
2022/06/09 11:22:28;;;;;;;3.90;1.15;;;18.30;99.90;;;;;;5076400;28;20056;-69
2022/06/09 11:25:19;;;;;;;1.95;0.95;;;18.40;99.90;;;;;;5076499;28;20389;-70
2022/06/09 11:28:06;;;;;;;5.15;0.90;;;18.40;99.90;;;;;;5084100;28;20121;-69
2022/06/09 11:31:04;;;;;;;3.47;0.90;;;18.40;99.90;;;;;;5096587;28;20054;-69
2022/06/09 11:34:01;;;;;;;4.22;0.85;;;18.50;99.90;;;;;;5096452;28;20048;-70
2022/06/09 11:36:40;;;;;;;1.40;0.63;;;18.60;99.90;;;;;;5096509;28;20055;-70
2022/06/09 11:39:36;;;;;;;5.40;1.02;;;18.70;99.90;;;;;;5078370;28;20051;-69
2022/06/09 11:42:04;;;;;;;1.67;0.70;;;18.80;99.90;;;;;;5078307;28;20059;-72
2022/06/09 11:44:35;;;;;;;3.25;0.70;;;18.90;99.90;;;;;;5096023;28;20044;-70
2022/06/09 11:47:11;;;;;;;2.22;0.50;;;19.00;99.90;;;;;;5078521;28;20056;-70
2022/06/09 11:49:48;;;;;;;1.95;0.80;;;18.90;99.90;;;;;;5096176;28;20400;-70
2022/06/09 11:52:29;;;;;;;1.58;0.80;;;18.90;99.90;;;;;;5096326;28;20404;-72
2022/06/09 11:54:55;;;;;;;3.17;0.77;;;18.90;99.90;;;;;;5078173;28;20071;-71
2022/06/09 11:57:49;;;;;;;2.28;0.77;;;18.90;99.90;;;;;;5095931;28;20412;-70
2022/06/09 12:00:37;;;;;;;4.32;0.90;;;19.00;99.90;;;;;;5096310;28;20052;-70
2022/06/09 12:03:29;;;;;;;3.63;0.95;;;19.10;99.90;;;;;;5095616;28;20078;-70
2022/06/09 12:06:16;;;;;;;0.98;0.60;;;19.10;99.90;;;;;;5095638;28;20055;-70
2022/06/09 12:09:21;;;;;;;1.60;0.90;;;19.10;99.90;;;;;;5095796;28;20048;-70
2022/06/09 12:12:34;;;;;;;1.05;0.50;;;19.10;99.90;;;;;;4997296;28;20442;-73
2022/06/09 12:15:31;;;;;;;1.35;0.70;;;19.20;99.90;;;;;;5013600;28;20062;-70
2022/06/09 12:18:07;;;;;;;2.70;0.75;;;19.20;99.90;;;;;;4985645;28;20068;-70
2022/06/09 12:20:40;;;;;;;3.00;0.70;;;19.20;99.90;;;;;;5013374;28;20418;-70
2022/06/09 12:23:25;;;;;;;2.03;0.52;;;19.10;99.90;;;;;;5013400;28;20442;-71
2022/06/09 12:26:09;;;;;;;1.75;0.47;;;19.00;99.90;;;;;;5013367;28;20054;-69
2022/06/09 12:28:50;;;;;;;1.98;0.38;;;19.10;99.90;;;;;;4998110;28;20162;-69
2022/06/09 12:31:38;;;;;;;1.40;0.50;;;19.10;99.90;;;;;;4993522;28;20558;-71
2022/06/09 12:34:10;;;;;;;4.10;1.00;;;19.10;99.90;;;;;;4954727;29;20055;-68
2022/06/09 12:36:51;;;;;;;3.38;0.80;;;19.10;99.90;;;;;;4938914;29;20099;-71
2022/06/09 12:39:34;;;;;;;2.70;0.80;;;19.10;99.90;;;;;;4954719;29;20047;-70
2022/06/09 12:42:01;;;;;;;2.13;0.60;;;19.10;99.90;;;;;;4954678;29;20101;-72
2022/06/09 12:44:40;;;;;;;2.80;1.48;;;19.10;99.90;;;;;;4954546;29;20062;-71
2022/06/09 12:47:17;;;;;;;3.70;0.60;;;19.20;99.90;;;;;;4959386;28;20138;-70
2022/06/09 12:49:55;;;;;;;2.47;0.90;;;20.00;99.90;;;;;;4993206;28;20446;-70
2022/06/09 12:52:23;;;;;;;2.67;0.70;;;19.30;99.90;;;;;;4976891;28;20066;-70
2022/06/09 12:55:17;;;;;;;2.40;0.50;;;19.20;99.90;;;;;;4993265;28;20064;-73
2022/06/09 12:57:54;;;;;;;2.35;0.70;;;19.20;99.90;;;;;;4993222;28;20052;-70
2022/06/09 13:00:31;;;;;;;2.35;0.50;;;19.20;99.90;;;;;;4993019;28;20133;-70
2022/06/09 13:02:58;;;;;;;2.30;0.55;;;19.20;99.90;;;;;;4993272;28;20083;-70
2022/06/09 13:05:36;;;;;;;3.25;0.70;;;19.20;99.90;;;;;;4992889;28;20062;-69
2022/06/09 13:08:20;;;;;;;2.10;0.50;;;19.20;99.90;;;;;;4993154;28;20414;-69
2022/06/09 13:10:57;;;;;;;2.60;0.50;;;19.20;99.90;;;;;;5023665;28;20056;-70
2022/06/09 13:13:37;;;;;;;1.85;0.50;;;19.30;99.90;;;;;;5074206;28;20056;-71
2022/06/09 13:16:28;;;;;;;1.80;0.80;;;19.30;99.90;;;;;;5055975;28;20059;-73
2022/06/09 13:19:02;;;;;;;4.03;0.60;;;19.30;99.90;;;;;;5074222;28;20094;-74
2022/06/09 13:21:38;;;;;;;3.40;0.90;;;19.30;99.90;;;;;;5073610;28;20080;-71
2022/06/09 13:24:11;;;;;;;3.37;0.80;;;19.30;99.90;;;;;;5074237;28;20472;-71
2022/06/09 13:26:43;;;;;;;7.68;0.90;;;19.30;99.90;;;;;;5074020;28;20048;-71
2022/06/09 13:29:35;;;;;;;3.42;0.90;;;19.40;99.90;;;;;;5093674;28;20550;-71
2022/06/09 13:32:09;;;;;;;3.70;0.90;;;19.40;99.90;;;;;;5094442;28;20095;-71
2022/06/09 13:34:41;;;;;;;2.45;0.90;;;19.30;99.90;;;;;;5094162;28;20485;-71